Time;durP1;ratioP1;P1;durP2;ratioP2;P2;SDS_P1;SDS_P2;PMS_P1;PMS_P2;Temp;Humidity;BMP_temperature;BMP_pressure;BME280_temperature;BME280_humidity;BME280_pressure;Samples;Min_cycle;Max_cycle;Signal;HPM_P1;HPM_P2
2023/01/28 00:01:13;;;;;;;1.83;1.27;;;3.50;99.90;;;;;;5071197;28;20193;-83
2023/01/28 00:03:40;;;;;;;2.07;1.53;;;3.40;99.90;;;;;;5055151;28;20239;-83
2023/01/28 00:06:14;;;;;;;1.10;1.10;;;3.30;99.90;;;;;;5054459;28;20547;-82
2023/01/28 00:08:40;;;;;;;1.33;1.23;;;3.30;99.90;;;;;;5066049;28;20225;-80
2023/01/28 00:11:09;;;;;;;3.80;1.90;;;3.30;99.90;;;;;;5053286;28;20217;-81
2023/01/28 00:13:34;;;;;;;1.30;1.30;;;3.30;99.90;;;;;;5065526;28;20275;-81
2023/01/28 00:16:03;;;;;;;1.10;1.10;;;3.40;99.90;;;;;;5031051;28;20646;-85
2023/01/28 00:18:31;;;;;;;1.40;1.40;;;3.40;99.90;;;;;;5056861;28;20754;-82
2023/01/28 00:21:11;;;;;;;0.97;0.97;;;3.40;99.90;;;;;;5057146;28;20641;-81
2023/01/28 00:23:39;;;;;;;0.90;0.83;;;3.40;99.90;;;;;;5054348;28;20274;-81
2023/01/28 00:26:08;;;;;;;1.10;1.10;;;3.50;99.90;;;;;;5054750;28;20224;-82
2023/01/28 00:28:34;;;;;;;1.43;1.33;;;3.50;99.90;;;;;;5063483;28;20564;-81
2023/01/28 00:31:17;;;;;;;1.93;1.30;;;3.50;99.90;;;;;;5054722;28;20615;-82
2023/01/28 00:33:45;;;;;;;0.77;0.77;;;3.50;99.90;;;;;;5065666;28;20210;-81
2023/01/28 00:36:11;;;;;;;1.50;1.13;;;3.50;99.90;;;;;;5064868;28;20887;-81
2023/01/28 00:38:37;;;;;;;0.77;0.77;;;3.60;99.90;;;;;;5065528;28;20221;-82
2023/01/28 00:41:07;;;;;;;1.53;1.13;;;3.50;99.90;;;;;;5064895;28;20225;-81
2023/01/28 00:43:33;;;;;;;1.80;1.43;;;3.60;99.90;;;;;;5065073;28;20225;-81
2023/01/28 00:45:58;;;;;;;2.30;1.40;;;3.60;99.90;;;;;;5039184;28;20243;-84
2023/01/28 00:48:24;;;;;;;2.63;2.07;;;3.60;99.90;;;;;;5036948;28;20248;-84
2023/01/28 00:50:50;;;;;;;0.77;0.77;;;3.60;99.90;;;;;;5064706;28;20224;-86
2023/01/28 00:53:16;;;;;;;2.33;1.40;;;3.60;99.90;;;;;;5054547;28;20249;-82
2023/01/28 00:55:41;;;;;;;1.00;1.00;;;3.50;99.90;;;;;;5021891;28;20217;-81
2023/01/28 00:58:07;;;;;;;1.30;1.20;;;3.60;99.90;;;;;;5019718;28;20250;-81
2023/01/28 01:00:33;;;;;;;1.90;1.03;;;3.60;99.90;;;;;;5065287;28;20710;-80
2023/01/28 01:02:59;;;;;;;0.87;0.87;;;3.60;99.90;;;;;;5036025;28;20233;-81
2023/01/28 01:05:24;;;;;;;2.43;1.80;;;3.70;99.90;;;;;;5054154;28;21063;-83
2023/01/28 01:07:50;;;;;;;0.80;0.73;;;3.70;99.90;;;;;;5054515;28;20267;-84
2023/01/28 01:10:18;;;;;;;2.47;1.30;;;3.70;99.90;;;;;;5019916;28;20685;-86
2023/01/28 01:12:48;;;;;;;1.97;1.70;;;3.70;99.90;;;;;;5054371;28;20587;-81
2023/01/28 01:15:15;;;;;;;0.70;0.70;;;3.70;99.90;;;;;;5037761;28;20217;-83
2023/01/28 01:17:42;;;;;;;0.57;0.57;;;3.60;99.90;;;;;;5064266;28;20299;-81
2023/01/28 01:20:13;;;;;;;0.63;0.63;;;3.60;99.90;;;;;;5064340;28;20653;-83
2023/01/28 01:22:38;;;;;;;1.17;1.07;;;3.50;99.90;;;;;;5064538;28;20228;-84
2023/01/28 01:25:05;;;;;;;2.20;0.73;;;3.40;99.90;;;;;;5055019;28;20189;-84
2023/01/28 01:27:31;;;;;;;1.07;0.97;;;3.40;99.90;;;;;;5054758;28;20213;-80
2023/01/28 01:29:57;;;;;;;1.33;0.93;;;3.50;99.90;;;;;;5052505;28;20219;-84
2023/01/28 01:32:27;;;;;;;2.23;0.97;;;3.50;99.90;;;;;;5055629;28;20588;-83
2023/01/28 01:34:53;;;;;;;1.13;1.07;;;3.60;99.90;;;;;;5064300;28;20686;-86
2023/01/28 01:37:19;;;;;;;0.87;0.83;;;3.60;99.90;;;;;;5064195;28;20276;-81
2023/01/28 01:39:44;;;;;;;1.60;1.50;;;3.60;99.90;;;;;;5037980;28;20637;-82
2023/01/28 01:42:12;;;;;;;0.80;0.70;;;3.70;99.90;;;;;;5063299;28;20224;-84
2023/01/28 01:44:58;;;;;;;2.27;1.87;;;3.70;99.90;;;;;;5061937;28;21127;-81
2023/01/28 01:47:26;;;;;;;1.07;1.07;;;3.70;99.90;;;;;;5051396;28;20276;-83
2023/01/28 01:49:53;;;;;;;0.90;0.90;;;3.70;99.90;;;;;;5052349;28;20270;-82
2023/01/28 01:52:24;;;;;;;0.63;0.63;;;3.60;99.90;;;;;;5054040;28;20705;-82
2023/01/28 01:54:55;;;;;;;1.37;1.10;;;3.50;99.90;;;;;;5064473;28;20173;-81
2023/01/28 01:57:26;;;;;;;1.53;1.43;;;3.40;99.90;;;;;;5062585;28;20733;-83
2023/01/28 01:59:52;;;;;;;1.47;1.37;;;3.30;99.90;;;;;;5061437;28;20775;-81
2023/01/28 02:02:18;;;;;;;0.90;0.90;;;3.20;99.90;;;;;;5038693;28;20233;-83
2023/01/28 02:04:44;;;;;;;1.50;1.40;;;3.30;99.90;;;;;;5063560;28;20225;-81
2023/01/28 02:07:14;;;;;;;0.90;0.90;;;3.20;99.90;;;;;;5063712;28;20536;-82
2023/01/28 02:09:40;;;;;;;1.07;1.07;;;3.30;99.90;;;;;;5053751;28;20182;-85
2023/01/28 02:12:14;;;;;;;1.90;1.80;;;3.40;99.90;;;;;;5055197;28;20323;-81
2023/01/28 02:14:44;;;;;;;1.13;1.13;;;3.50;99.90;;;;;;5066791;28;20228;-81
2023/01/28 02:17:10;;;;;;;2.13;2.03;;;3.50;99.90;;;;;;5066073;28;20666;-86
2023/01/28 02:19:50;;;;;;;1.77;1.67;;;3.50;99.90;;;;;;5066831;28;20299;-82
2023/01/28 02:22:37;;;;;;;2.10;1.87;;;3.60;99.90;;;;;;5068077;28;20319;-85
2023/01/28 02:25:11;;;;;;;1.03;1.03;;;3.60;99.90;;;;;;5058507;28;20654;-82
2023/01/28 02:28:08;;;;;;;1.00;1.00;;;3.60;99.90;;;;;;5057890;28;20228;-81
2023/01/28 02:30:51;;;;;;;2.50;1.23;;;3.50;99.90;;;;;;5067231;28;20224;-82
2023/01/28 02:33:34;;;;;;;1.17;0.97;;;3.60;99.90;;;;;;5066779;28;20221;-86
2023/01/28 02:36:11;;;;;;;1.87;1.77;;;3.60;99.90;;;;;;5065946;28;20302;-85
2023/01/28 02:38:49;;;;;;;1.97;1.63;;;3.60;99.90;;;;;;5066840;28;20231;-84
2023/01/28 02:41:30;;;;;;;1.63;1.33;;;3.60;99.90;;;;;;5067249;28;20217;-83
2023/01/28 02:43:56;;;;;;;0.83;0.83;;;3.70;99.90;;;;;;5066958;28;20607;-82
2023/01/28 02:49:29;;;;;;;1.73;1.63;;;3.70;99.90;;;;;;5067171;28;20173;-81
2023/01/28 02:52:13;;;;;;;0.73;0.70;;;3.60;99.90;;;;;;5053651;28;20225;-81
2023/01/28 02:55:04;;;;;;;0.80;0.80;;;3.60;99.90;;;;;;5047426;28;20267;-83
2023/01/28 02:58:11;;;;;;;1.07;1.07;;;3.60;99.90;;;;;;5047334;28;20210;-83
2023/01/28 03:00:53;;;;;;;1.47;1.37;;;3.60;99.90;;;;;;5034171;28;20213;-81
2023/01/28 03:03:35;;;;;;;1.53;1.13;;;3.60;99.90;;;;;;5046614;28;20320;-85
2023/01/28 03:06:09;;;;;;;1.57;1.50;;;3.60;99.90;;;;;;5046924;28;20707;-82
2023/01/28 03:36:55;;;;;;;4.57;3.23;;;3.60;99.90;;;;;;5047256;28;20190;-81
2023/01/28 03:39:23;;;;;;;1.93;1.27;;;3.60;99.90;;;;;;5045511;28;20318;-81
2023/01/28 03:42:10;;;;;;;0.77;0.77;;;3.60;99.90;;;;;;5045621;28;20246;-81
2023/01/28 03:44:52;;;;;;;2.47;1.23;;;3.50;99.90;;;;;;5045283;28;20213;-81
2023/01/28 03:47:19;;;;;;;1.60;1.47;;;3.50;99.90;;;;;;5046047;28;20253;-81
2023/01/28 03:49:50;;;;;;;0.80;0.80;;;3.40;99.90;;;;;;5044498;28;20218;-83
2023/01/28 03:52:18;;;;;;;0.83;0.83;;;3.40;99.90;;;;;;5046516;28;20238;-86
2023/01/28 03:54:47;;;;;;;2.20;2.10;;;3.40;99.90;;;;;;5054657;28;20792;-83
2023/01/28 03:57:17;;;;;;;2.03;1.90;;;3.40;99.90;;;;;;5039250;28;20608;-81
2023/01/28 03:59:43;;;;;;;0.77;0.77;;;3.40;99.90;;;;;;5053781;28;20227;-82
2023/01/28 04:02:10;;;;;;;1.00;1.00;;;3.30;99.90;;;;;;5051420;28;20242;-82
2023/01/28 04:04:37;;;;;;;1.80;1.27;;;3.30;99.90;;;;;;5019781;28;20213;-81
2023/01/28 04:07:04;;;;;;;1.70;1.40;;;3.30;99.90;;;;;;5056631;28;20313;-84
2023/01/28 04:09:29;;;;;;;3.47;2.30;;;3.20;99.90;;;;;;5052917;28;20229;-86
2023/01/28 04:11:55;;;;;;;2.13;1.80;;;3.10;99.90;;;;;;5038138;28;20232;-81
2023/01/28 04:14:21;;;;;;;1.27;1.27;;;3.10;99.90;;;;;;5036963;28;20303;-81
2023/01/28 04:16:46;;;;;;;1.07;1.03;;;3.10;99.90;;;;;;5019503;28;20329;-81
2023/01/28 04:19:12;;;;;;;2.37;2.03;;;3.20;99.90;;;;;;5053328;28;20227;-82
2023/01/28 04:21:38;;;;;;;1.50;1.40;;;3.10;99.90;;;;;;5052568;28;20217;-83
2023/01/28 04:24:04;;;;;;;1.00;1.00;;;3.10;99.90;;;;;;5052081;28;20797;-81
2023/01/28 04:26:30;;;;;;;2.17;1.83;;;3.20;99.90;;;;;;5038249;28;20229;-82
2023/01/28 04:28:56;;;;;;;0.70;0.70;;;3.20;99.90;;;;;;5057418;28;20304;-81
2023/01/28 04:31:22;;;;;;;0.77;0.77;;;3.20;99.90;;;;;;5055203;28;20197;-82
2023/01/28 04:33:48;;;;;;;1.33;1.30;;;3.20;99.90;;;;;;5053578;28;20189;-81
2023/01/28 04:36:15;;;;;;;0.40;0.40;;;3.20;99.90;;;;;;5037590;28;20594;-81
2023/01/28 04:38:41;;;;;;;1.23;1.13;;;3.10;99.90;;;;;;5050555;28;20239;-84
2023/01/28 04:41:06;;;;;;;3.60;1.60;;;3.20;99.90;;;;;;5050610;28;20229;-81
2023/01/28 04:43:32;;;;;;;0.90;0.90;;;3.10;99.90;;;;;;5051434;28;20549;-84
2023/01/28 04:45:58;;;;;;;1.93;1.73;;;3.10;99.90;;;;;;5032499;28;20750;-85
2023/01/28 04:48:23;;;;;;;2.53;1.20;;;3.10;99.90;;;;;;5033158;28;20263;-82
2023/01/28 04:50:49;;;;;;;2.13;2.03;;;3.10;99.90;;;;;;5035806;28;20233;-81
2023/01/28 04:53:15;;;;;;;2.57;2.37;;;3.10;99.90;;;;;;5041931;28;20249;-86
2023/01/28 04:55:40;;;;;;;1.20;1.20;;;3.10;99.90;;;;;;5008285;28;20287;-87
2023/01/28 04:58:06;;;;;;;1.77;1.67;;;3.10;99.90;;;;;;5041432;28;20190;-87
2023/01/28 05:00:32;;;;;;;0.77;0.77;;;3.10;99.90;;;;;;5025484;28;20715;-82
2023/01/28 05:02:58;;;;;;;1.37;1.27;;;3.10;99.90;;;;;;5041499;28;20936;-83
2023/01/28 05:05:23;;;;;;;2.27;1.90;;;3.10;99.90;;;;;;5008285;28;20728;-81
2023/01/28 05:07:54;;;;;;;1.53;1.37;;;3.10;99.90;;;;;;5041206;28;20687;-82
2023/01/28 05:10:20;;;;;;;1.00;1.00;;;3.10;99.90;;;;;;5041440;28;20195;-84
2023/01/28 05:12:47;;;;;;;1.33;1.20;;;3.10;99.90;;;;;;5025071;28;20209;-82
2023/01/28 05:15:16;;;;;;;2.20;1.43;;;3.10;99.90;;;;;;5041018;28;20222;-83
2023/01/28 05:17:43;;;;;;;1.50;1.40;;;3.10;99.90;;;;;;5024544;28;20762;-84
2023/01/28 05:20:11;;;;;;;5.90;1.53;;;3.10;99.90;;;;;;5041211;28;20226;-83
2023/01/28 05:22:38;;;;;;;1.73;1.30;;;3.10;99.90;;;;;;5025486;28;20226;-83
2023/01/28 05:25:04;;;;;;;1.57;1.47;;;3.10;99.90;;;;;;5027138;28;20260;-86
2023/01/28 05:27:31;;;;;;;2.27;1.33;;;3.10;99.90;;;;;;5026232;28;20276;-81
2023/01/28 05:29:57;;;;;;;1.27;1.00;;;3.00;99.90;;;;;;5042953;28;20229;-84
2023/01/28 05:32:23;;;;;;;1.63;0.80;;;3.00;99.90;;;;;;5041217;28;20233;-87
2023/01/28 05:34:49;;;;;;;0.73;0.73;;;3.00;99.90;;;;;;5024804;28;20217;-84
2023/01/28 05:37:15;;;;;;;1.93;1.77;;;2.90;99.90;;;;;;5024059;28;20190;-82
2023/01/28 05:39:41;;;;;;;0.77;0.77;;;3.00;99.90;;;;;;5024636;28;20272;-82
2023/01/28 05:42:06;;;;;;;1.20;1.20;;;3.00;99.90;;;;;;5023958;28;20222;-82
2023/01/28 05:44:32;;;;;;;0.73;0.73;;;3.00;99.90;;;;;;5040815;28;20687;-82
2023/01/28 05:46:58;;;;;;;1.57;1.03;;;3.00;99.90;;;;;;5041761;28;20300;-83
2023/01/28 05:49:25;;;;;;;1.50;1.37;;;2.90;99.90;;;;;;5007999;28;20194;-84
2023/01/28 05:51:51;;;;;;;0.80;0.80;;;2.90;99.90;;;;;;5010605;28;20287;-84
2023/01/28 05:54:17;;;;;;;2.23;2.10;;;2.90;99.90;;;;;;5051804;28;20267;-81
2023/01/28 05:56:43;;;;;;;2.53;1.77;;;2.90;99.90;;;;;;5047627;28;20288;-86
2023/01/28 05:59:11;;;;;;;1.33;1.33;;;2.90;99.90;;;;;;5032421;28;20734;-83
2023/01/28 06:01:36;;;;;;;1.90;1.27;;;2.90;99.90;;;;;;5049951;28;20283;-82
2023/01/28 06:04:03;;;;;;;1.97;1.70;;;2.80;99.90;;;;;;5051656;28;20538;-87
2023/01/28 06:06:31;;;;;;;1.93;1.43;;;2.80;99.90;;;;;;5049059;28;20218;-83
2023/01/28 06:08:57;;;;;;;1.57;1.37;;;2.60;99.90;;;;;;5050564;28;20221;-81
2023/01/28 06:11:23;;;;;;;1.70;1.60;;;2.60;99.90;;;;;;5050351;28;20224;-81
2023/01/28 06:13:48;;;;;;;0.90;0.90;;;2.50;99.90;;;;;;5034071;28;20256;-81
2023/01/28 06:16:14;;;;;;;0.97;0.97;;;2.50;99.90;;;;;;5049993;28;20193;-82
2023/01/28 06:18:40;;;;;;;1.13;1.03;;;2.40;99.90;;;;;;5060612;28;20251;-83
2023/01/28 06:21:06;;;;;;;2.77;2.33;;;2.40;99.90;;;;;;5033734;28;20225;-83
2023/01/28 06:23:32;;;;;;;1.80;1.23;;;2.30;99.90;;;;;;5035857;28;20221;-80
2023/01/28 06:25:58;;;;;;;1.57;1.47;;;2.30;99.90;;;;;;5050918;28;20216;-81
2023/01/28 06:28:24;;;;;;;1.13;1.13;;;2.20;99.90;;;;;;5050685;28;21083;-81
2023/01/28 06:30:54;;;;;;;1.40;1.13;;;2.20;99.90;;;;;;5034710;28;20776;-84
2023/01/28 06:33:21;;;;;;;2.43;2.30;;;2.10;99.90;;;;;;5053568;28;20228;-82
2023/01/28 06:35:46;;;;;;;3.90;2.43;;;2.10;99.90;;;;;;5054845;28;20271;-84
2023/01/28 06:38:13;;;;;;;1.30;1.27;;;2.00;99.90;;;;;;5051430;28;20217;-82
2023/01/28 06:40:39;;;;;;;1.43;1.43;;;2.00;99.90;;;;;;5052353;28;20217;-83
2023/01/28 06:43:05;;;;;;;1.03;1.03;;;2.00;99.90;;;;;;5036212;28;20291;-80
2023/01/28 06:45:31;;;;;;;0.90;0.90;;;1.90;99.90;;;;;;5047677;28;20185;-81
2023/01/28 06:47:57;;;;;;;1.20;1.20;;;1.90;99.90;;;;;;5017351;28;20272;-81
2023/01/28 06:50:23;;;;;;;1.57;1.47;;;1.80;99.90;;;;;;5052036;28;20308;-81
2023/01/28 06:52:49;;;;;;;1.37;1.37;;;1.80;99.90;;;;;;5059809;28;20338;-87
2023/01/28 06:55:15;;;;;;;1.07;1.07;;;1.80;99.90;;;;;;5037617;28;20247;-81
2023/01/28 06:57:41;;;;;;;3.37;2.50;;;1.70;99.90;;;;;;5021469;28;20189;-81
2023/01/28 07:00:09;;;;;;;1.70;1.60;;;1.70;99.90;;;;;;5039780;28;20221;-81
2023/01/28 07:02:35;;;;;;;0.90;0.90;;;1.60;99.90;;;;;;5055491;28;20322;-84
2023/01/28 07:05:03;;;;;;;0.93;0.93;;;1.60;99.90;;;;;;5040223;28;20229;-82
2023/01/28 07:07:28;;;;;;;2.27;2.00;;;1.60;99.90;;;;;;5074432;28;20257;-82
2023/01/28 07:09:54;;;;;;;3.03;2.77;;;1.50;99.90;;;;;;5024394;28;20200;-87
2023/01/28 07:12:20;;;;;;;0.70;0.70;;;1.50;99.90;;;;;;5056736;28;20240;-86
2023/01/28 07:14:45;;;;;;;3.70;2.83;;;1.40;99.90;;;;;;5056196;28;20229;-82
2023/01/28 07:17:11;;;;;;;3.90;2.83;;;1.40;99.90;;;;;;5055139;28;20271;-82
2023/01/28 07:19:37;;;;;;;1.03;1.03;;;1.40;99.90;;;;;;5057360;28;20228;-82
2023/01/28 07:22:03;;;;;;;1.00;1.00;;;1.40;99.90;;;;;;5055991;28;20213;-81
2023/01/28 07:24:29;;;;;;;1.87;1.77;;;1.40;99.90;;;;;;5022921;28;20272;-82
2023/01/28 07:26:55;;;;;;;1.67;1.57;;;1.40;99.90;;;;;;5037716;28;20205;-82
2023/01/28 07:29:20;;;;;;;1.63;1.43;;;1.30;99.90;;;;;;5053105;28;20623;-82
2023/01/28 07:31:46;;;;;;;1.37;1.27;;;1.30;99.90;;;;;;5038463;28;21215;-81
2023/01/28 07:34:12;;;;;;;2.87;1.67;;;1.30;99.90;;;;;;5035736;28;20201;-81
2023/01/28 07:36:38;;;;;;;1.30;1.07;;;1.30;99.90;;;;;;5066466;28;20224;-82
2023/01/28 07:39:06;;;;;;;1.50;1.40;;;1.30;99.90;;;;;;5038691;28;20252;-82
2023/01/28 07:41:31;;;;;;;1.87;1.00;;;1.50;99.90;;;;;;5053120;28;20252;-87
2023/01/28 07:43:57;;;;;;;1.43;1.33;;;1.80;99.90;;;;;;5038817;28;20823;-81
2023/01/28 07:46:23;;;;;;;2.77;2.50;;;1.90;99.90;;;;;;5020958;28;20276;-81
2023/01/28 07:48:49;;;;;;;1.10;1.10;;;2.10;99.90;;;;;;5065955;28;20255;-82
2023/01/28 07:51:14;;;;;;;1.47;1.40;;;2.20;99.90;;;;;;5038357;28;20682;-84
2023/01/28 07:53:40;;;;;;;1.13;1.13;;;2.30;99.90;;;;;;5054972;28;20253;-81
2023/01/28 07:56:06;;;;;;;2.17;1.70;;;2.20;99.90;;;;;;5024532;28;20221;-81
2023/01/28 07:58:33;;;;;;;1.30;0.93;;;2.10;99.90;;;;;;5055909;28;20210;-85
2023/01/28 08:00:59;;;;;;;5.30;3.20;;;2.20;99.90;;;;;;5055566;28;20223;-83
2023/01/28 08:03:26;;;;;;;3.63;3.07;;;2.40;99.90;;;;;;5065621;28;20389;-81
2023/01/28 08:05:54;;;;;;;4.10;1.97;;;2.80;99.90;;;;;;5065136;28;20678;-86
2023/01/28 08:08:24;;;;;;;2.70;2.40;;;3.70;99.90;;;;;;5052333;28;20275;-85
2023/01/28 08:10:50;;;;;;;3.37;3.07;;;4.20;99.90;;;;;;5037514;28;20260;-85
2023/01/28 08:13:17;;;;;;;3.33;3.03;;;4.50;99.90;;;;;;5054662;28;20290;-80
2023/01/28 08:15:43;;;;;;;9.30;7.10;;;5.10;99.90;;;;;;5054986;28;20174;-86
2023/01/28 08:18:12;;;;;;;4.03;3.17;;;5.90;99.90;;;;;;5055725;28;20831;-81
2023/01/28 08:20:38;;;;;;;5.77;3.97;;;6.30;99.90;;;;;;5064990;28;20296;-83
2023/01/28 08:23:15;;;;;;;3.83;3.53;;;7.00;99.90;;;;;;5056408;28;20233;-81
2023/01/28 08:25:41;;;;;;;3.70;3.47;;;7.80;99.90;;;;;;5051341;28;20217;-80
2023/01/28 08:28:07;;;;;;;4.00;2.87;;;8.20;99.90;;;;;;5036009;28;21307;-82
2023/01/28 08:30:33;;;;;;;3.13;2.30;;;7.90;99.90;;;;;;5063890;28;20182;-82
2023/01/28 08:33:00;;;;;;;2.57;2.37;;;6.80;99.90;;;;;;5054024;28;20705;-83
2023/01/28 08:35:27;;;;;;;3.07;1.97;;;5.60;99.90;;;;;;5053071;28;20312;-81
2023/01/28 08:37:53;;;;;;;2.20;2.00;;;4.90;99.90;;;;;;5063418;28;20304;-81
2023/01/28 08:40:19;;;;;;;2.20;2.00;;;4.50;99.90;;;;;;5053098;28;20189;-84
2023/01/28 08:42:47;;;;;;;3.13;2.87;;;4.00;99.90;;;;;;5053879;28;20210;-81
2023/01/28 08:45:13;;;;;;;1.17;1.17;;;3.50;99.90;;;;;;5063791;28;20217;-81
2023/01/28 08:47:50;;;;;;;1.57;1.47;;;3.10;99.90;;;;;;5028876;28;20219;-83
2023/01/28 08:50:17;;;;;;;1.17;1.07;;;2.80;99.90;;;;;;5053034;28;20229;-80
2023/01/28 08:52:44;;;;;;;2.47;2.23;;;2.70;99.90;;;;;;5037133;28;20500;-80
2023/01/28 08:55:12;;;;;;;1.40;1.30;;;2.90;99.90;;;;;;5056734;28;20553;-81
2023/01/28 08:57:38;;;;;;;2.93;2.63;;;3.00;99.90;;;;;;5064970;28;20662;-81
2023/01/28 09:00:09;;;;;;;3.40;2.67;;;3.20;99.90;;;;;;5055313;28;20681;-84
2023/01/28 09:02:36;;;;;;;6.43;2.53;;;3.40;99.90;;;;;;5063474;28;20229;-85
2023/01/28 09:05:02;;;;;;;1.53;1.43;;;3.30;99.90;;;;;;5052393;28;20219;-83
2023/01/28 09:07:28;;;;;;;5.33;4.27;;;3.30;99.90;;;;;;5037052;28;20220;-83
2023/01/28 09:09:54;;;;;;;2.77;1.40;;;3.20;99.90;;;;;;5021426;28;20189;-86
2023/01/28 09:12:19;;;;;;;6.97;2.70;;;3.40;99.90;;;;;;5052452;28;20354;-83
2023/01/28 09:14:45;;;;;;;1.57;1.40;;;3.40;99.90;;;;;;5037004;28;20240;-85
2023/01/28 09:17:11;;;;;;;1.87;1.83;;;3.40;99.90;;;;;;5051913;28;20213;-86
2023/01/28 09:19:36;;;;;;;3.53;1.47;;;3.40;99.90;;;;;;5037474;28;20260;-83
2023/01/28 09:22:03;;;;;;;2.10;1.93;;;3.40;99.90;;;;;;5066125;28;20680;-83
2023/01/28 09:24:29;;;;;;;2.70;2.10;;;3.40;99.90;;;;;;5064594;28;20232;-84
2023/01/28 09:26:55;;;;;;;1.57;1.47;;;3.40;99.90;;;;;;5054698;28;20741;-82
2023/01/28 09:29:21;;;;;;;2.40;1.97;;;3.30;99.90;;;;;;5062616;28;20670;-84
2023/01/28 09:31:47;;;;;;;1.20;0.90;;;3.50;99.90;;;;;;5034673;28;20221;-84
2023/01/28 09:34:13;;;;;;;1.13;1.13;;;3.50;99.90;;;;;;5038097;28;20193;-83
2023/01/28 09:36:38;;;;;;;8.70;2.27;;;3.60;99.90;;;;;;5037940;28;20196;-85
2023/01/28 09:39:04;;;;;;;2.17;2.07;;;3.70;99.90;;;;;;5039219;28;20327;-90
2023/01/28 09:41:52;;;;;;;2.83;1.93;;;3.90;99.90;;;;;;5047382;28;20300;-84
2023/01/28 09:44:28;;;;;;;1.53;1.43;;;3.90;99.90;;;;;;5066856;28;20596;-86
2023/01/28 09:47:01;;;;;;;0.70;0.70;;;4.20;99.90;;;;;;5051541;28;20726;-88
2023/01/28 09:49:38;;;;;;;3.50;2.97;;;4.60;99.90;;;;;;5052959;28;20217;-88
2023/01/28 09:52:04;;;;;;;2.63;2.43;;;4.90;99.90;;;;;;5051098;28;20271;-85
2023/01/28 09:54:44;;;;;;;3.20;2.97;;;5.20;99.90;;;;;;5037140;28;20303;-85
2023/01/28 09:57:20;;;;;;;1.67;1.57;;;5.60;99.90;;;;;;5052419;28;20286;-84
2023/01/28 09:59:46;;;;;;;2.77;1.87;;;5.60;99.90;;;;;;5053002;28;20530;-87
2023/01/28 10:02:24;;;;;;;1.57;1.50;;;5.50;99.90;;;;;;5053648;28;20258;-83
2023/01/28 10:05:15;;;;;;;2.97;2.70;;;5.30;99.90;;;;;;5052368;28;20230;-83
2023/01/28 10:07:46;;;;;;;4.33;1.83;;;5.40;99.90;;;;;;5063443;28;20320;-83
2023/01/28 10:10:20;;;;;;;4.33;2.83;;;5.50;99.90;;;;;;5051578;28;20193;-84
2023/01/28 10:13:16;;;;;;;2.57;2.37;;;5.40;99.90;;;;;;5053694;28;20220;-86
2023/01/28 10:15:55;;;;;;;3.13;2.43;;;5.40;99.90;;;;;;5063088;28;20217;-83
2023/01/28 10:18:33;;;;;;;2.93;2.47;;;5.20;99.90;;;;;;5064008;28;20220;-85
2023/01/28 10:21:11;;;;;;;3.20;2.40;;;5.20;99.90;;;;;;5061318;28;20303;-84
2023/01/28 10:23:49;;;;;;;3.27;2.23;;;5.20;99.90;;;;;;5052320;28;20713;-83
2023/01/28 10:26:22;;;;;;;2.57;2.37;;;5.40;99.90;;;;;;5054039;28;20262;-85
2023/01/28 10:28:57;;;;;;;2.43;2.23;;;5.50;99.90;;;;;;5062663;28;20219;-85
2023/01/28 10:31:29;;;;;;;3.90;3.13;;;5.60;99.90;;;;;;5062880;28;20646;-82
2023/01/28 10:33:54;;;;;;;2.33;2.23;;;5.60;99.90;;;;;;5062195;28;20231;-82
2023/01/28 10:36:21;;;;;;;3.80;1.67;;;5.60;99.90;;;;;;5053121;28;20209;-87
2023/01/28 10:38:47;;;;;;;2.17;1.97;;;5.60;99.90;;;;;;5048179;28;20216;-86
2023/01/28 10:41:19;;;;;;;0.63;0.63;;;5.50;99.90;;;;;;5056478;28;20224;-83
2023/01/28 10:43:47;;;;;;;0.90;0.87;;;5.50;99.90;;;;;;5056616;28;20229;-85
2023/01/28 10:46:28;;;;;;;1.57;1.13;;;5.50;99.90;;;;;;5053776;28;20203;-84
2023/01/28 10:49:03;;;;;;;2.70;2.50;;;5.60;99.90;;;;;;5056134;28;20715;-84
2023/01/28 10:51:39;;;;;;;2.43;1.63;;;5.70;99.90;;;;;;5066772;28;20219;-84
2023/01/28 10:54:20;;;;;;;1.37;1.27;;;5.80;99.90;;;;;;5054357;28;20225;-82
2023/01/28 10:56:49;;;;;;;1.77;1.33;;;5.80;99.90;;;;;;5066565;28;20233;-84
2023/01/28 10:59:20;;;;;;;2.10;1.57;;;5.90;99.90;;;;;;5066329;28;20302;-87
2023/01/28 11:02:02;;;;;;;0.97;0.90;;;5.80;99.90;;;;;;5066808;28;20902;-86
2023/01/28 11:04:34;;;;;;;0.90;0.90;;;5.80;99.90;;;;;;5055330;28;20295;-84
2023/01/28 11:07:03;;;;;;;1.80;1.53;;;5.80;99.90;;;;;;5065361;28;20227;-87
2023/01/28 11:09:43;;;;;;;2.07;1.90;;;5.80;99.90;;;;;;5066931;28;20213;-86
2023/01/28 11:12:26;;;;;;;2.23;1.33;;;5.90;99.90;;;;;;5056120;28;20205;-85
2023/01/28 11:15:04;;;;;;;1.10;1.00;;;6.00;99.90;;;;;;5056425;28;20693;-84
2023/01/28 11:17:36;;;;;;;1.27;0.90;;;5.90;99.90;;;;;;5055641;28;20224;-84
2023/01/28 11:20:17;;;;;;;1.13;0.70;;;5.80;99.90;;;;;;5056039;28;20217;-86
2023/01/28 11:22:44;;;;;;;3.80;1.90;;;5.70;99.90;;;;;;5056854;28;20589;-83
2023/01/28 11:25:24;;;;;;;2.10;1.93;;;5.70;99.90;;;;;;5056719;28;20204;-85
2023/01/28 11:27:52;;;;;;;1.93;1.60;;;5.90;99.90;;;;;;5058696;28;20200;-86
2023/01/28 11:30:25;;;;;;;0.80;0.80;;;6.10;99.90;;;;;;5041466;28;20221;-85
2023/01/28 11:33:15;;;;;;;2.33;1.70;;;6.30;99.90;;;;;;5056554;28;20225;-84
2023/01/28 11:35:41;;;;;;;1.60;1.50;;;6.80;99.90;;;;;;5066104;28;20221;-83
2023/01/28 11:38:20;;;;;;;1.40;1.10;;;6.90;99.90;;;;;;5056068;28;20213;-84
2023/01/28 11:40:54;;;;;;;1.13;1.07;;;7.10;99.90;;;;;;5056353;28;20274;-84
2023/01/28 11:43:26;;;;;;;0.73;0.73;;;7.10;99.90;;;;;;5054438;28;20266;-85
2023/01/28 11:46:11;;;;;;;2.37;1.40;;;7.20;99.90;;;;;;5057252;28;20304;-83
2023/01/28 11:49:02;;;;;;;0.90;0.83;;;7.40;99.90;;;;;;5056033;28;20228;-83
2023/01/28 11:51:59;;;;;;;0.83;0.83;;;7.30;99.90;;;;;;5065907;28;20221;-82
2023/01/28 11:55:03;;;;;;;1.43;0.80;;;6.90;99.90;;;;;;5050789;28;20236;-84
2023/01/28 11:58:09;;;;;;;0.47;0.47;;;6.60;99.90;;;;;;5070778;28;20923;-83
2023/01/28 12:00:43;;;;;;;0.67;0.53;;;6.70;99.90;;;;;;5066260;28;20227;-85
2023/01/28 12:03:43;;;;;;;0.87;0.87;;;6.60;99.90;;;;;;5063655;28;20579;-84
2023/01/28 12:06:16;;;;;;;0.67;0.67;;;6.50;99.90;;;;;;5056402;28;20217;-84
2023/01/28 12:09:12;;;;;;;0.77;0.77;;;6.60;99.90;;;;;;5071761;28;20213;-84
2023/01/28 12:14:38;;;;;;;0.70;0.70;;;6.80;99.90;;;;;;5064776;28;21026;-83
2023/01/28 12:17:45;;;;;;;0.87;0.87;;;7.00;99.90;;;;;;5055766;28;20224;-87
2023/01/28 12:20:39;;;;;;;1.07;0.97;;;6.70;99.90;;;;;;5052919;28;20212;-84
2023/01/28 12:23:16;;;;;;;1.27;1.27;;;6.70;99.90;;;;;;5052926;28;20256;-84
2023/01/28 12:25:54;;;;;;;1.23;1.13;;;6.90;99.90;;;;;;5057061;28;20224;-85
2023/01/28 12:28:47;;;;;;;0.50;0.50;;;6.70;99.90;;;;;;5064947;28;20893;-83
2023/01/28 12:31:34;;;;;;;0.93;0.93;;;6.70;99.90;;;;;;5062829;28;20174;-83
2023/01/28 12:34:33;;;;;;;1.57;0.70;;;6.80;99.90;;;;;;5065172;28;20733;-84
2023/01/28 12:37:15;;;;;;;0.57;0.57;;;6.80;99.90;;;;;;5054594;28;20228;-84
2023/01/28 12:39:53;;;;;;;5.53;1.10;;;7.00;99.90;;;;;;5065311;28;20232;-83
2023/01/28 12:42:36;;;;;;;1.30;0.73;;;7.00;99.90;;;;;;5064366;28;20233;-86
2023/01/28 12:45:33;;;;;;;0.53;0.53;;;6.80;99.90;;;;;;5054465;28;20217;-87
2023/01/28 12:48:26;;;;;;;0.70;0.70;;;6.70;99.90;;;;;;5052947;28;20674;-84
2023/01/28 12:51:14;;;;;;;0.73;0.73;;;6.80;99.90;;;;;;5064243;28;20225;-84
2023/01/28 12:53:43;;;;;;;2.37;0.73;;;6.60;99.90;;;;;;5053567;28;20302;-84
2023/01/28 12:56:16;;;;;;;1.17;1.07;;;6.70;99.90;;;;;;5064305;28;20229;-84
2023/01/28 12:58:57;;;;;;;1.37;1.30;;;6.60;99.90;;;;;;5064147;28;20278;-83
2023/01/28 13:01:41;;;;;;;0.83;0.83;;;6.70;99.90;;;;;;5046465;28;20222;-83
2023/01/28 13:04:30;;;;;;;1.40;0.80;;;6.80;99.90;;;;;;5044707;28;20196;-83
2023/01/28 13:07:11;;;;;;;0.40;0.40;;;6.90;99.90;;;;;;5054484;28;20332;-88
2023/01/28 13:09:48;;;;;;;1.00;0.50;;;6.90;99.90;;;;;;5053345;28;20213;-83
2023/01/28 13:12:15;;;;;;;8.43;0.80;;;6.60;99.90;;;;;;5052231;28;20558;-84
2023/01/28 13:14:41;;;;;;;0.40;0.40;;;6.70;99.90;;;;;;5051386;28;20734;-83
2023/01/28 13:17:28;;;;;;;0.40;0.40;;;6.60;99.90;;;;;;5052184;28;20225;-88
2023/01/28 13:19:54;;;;;;;0.77;0.77;;;6.60;99.90;;;;;;5051019;28;20225;-83
2023/01/28 13:22:37;;;;;;;0.50;0.50;;;6.60;99.90;;;;;;5061608;28;20240;-87
2023/01/28 13:25:19;;;;;;;1.27;1.17;;;6.70;99.90;;;;;;5062340;28;20232;-83
2023/01/28 13:28:03;;;;;;;2.00;1.63;;;6.70;99.90;;;;;;5063245;28;20217;-84
2023/01/28 13:30:33;;;;;;;0.30;0.30;;;6.70;99.90;;;;;;5052542;28;20216;-83
2023/01/28 13:33:02;;;;;;;1.90;1.07;;;6.70;99.90;;;;;;5062212;28;20282;-83
2023/01/28 13:35:40;;;;;;;1.17;1.07;;;6.60;99.90;;;;;;5055534;28;20216;-84
2023/01/28 13:38:20;;;;;;;1.30;0.50;;;6.60;99.90;;;;;;5052053;28;20213;-84
2023/01/28 13:40:59;;;;;;;0.97;0.73;;;6.60;99.90;;;;;;5052518;28;20601;-83
2023/01/28 13:43:27;;;;;;;0.50;0.50;;;6.60;99.90;;;;;;5061862;28;20244;-83
2023/01/28 13:46:01;;;;;;;0.87;0.87;;;6.70;99.90;;;;;;5053956;28;20181;-82
2023/01/28 13:48:43;;;;;;;0.30;0.30;;;6.70;99.90;;;;;;5053138;28;20262;-82
2023/01/28 13:51:19;;;;;;;0.53;0.30;;;6.60;99.90;;;;;;5050935;28;20966;-82
2023/01/28 13:53:54;;;;;;;0.33;0.33;;;6.70;99.90;;;;;;5061454;28;20263;-84